createdAt,value
2022-12-31T00:03:01.014Z,17.33
2022-12-31T00:06:29.569Z,24.48
2022-12-31T00:09:37.000Z,20.75
2022-12-31T00:12:40.649Z,21.40
2022-12-31T00:15:56.624Z,23.33
2022-12-31T00:19:00.976Z,24.00
2022-12-31T00:22:06.767Z,19.58
2022-12-31T00:25:11.672Z,18.50
2022-12-31T00:28:15.294Z,26.08
2022-12-31T00:31:25.683Z,18.77
2022-12-31T00:34:31.451Z,22.20
2022-12-31T00:37:39.212Z,20.85
2022-12-31T00:40:52.890Z,21.48
2022-12-31T00:43:58.765Z,25.45
2022-12-31T00:47:02.550Z,24.33
2022-12-31T00:50:09.153Z,20.90
2022-12-31T00:53:12.305Z,21.02
2022-12-31T00:56:21.558Z,24.42
2022-12-31T00:59:25.652Z,19.52
2022-12-31T01:02:29.839Z,21.62
2022-12-31T01:05:35.094Z,23.38
2022-12-31T01:08:41.667Z,19.25
2022-12-31T01:11:45.808Z,24.98
2022-12-31T01:14:50.543Z,18.60
2022-12-31T01:17:54.387Z,17.00
2022-12-31T01:21:04.769Z,25.80
2022-12-31T01:24:10.988Z,23.02
2022-12-31T01:27:16.562Z,19.92
2022-12-31T01:30:23.280Z,19.92
2022-12-31T01:33:28.499Z,20.52
2022-12-31T01:36:34.853Z,19.58
2022-12-31T01:39:38.785Z,20.95
2022-12-31T01:42:43.998Z,22.15
2022-12-31T01:45:54.754Z,17.62
2022-12-31T01:49:27.204Z,20.80
2022-12-31T01:52:47.766Z,16.98
2022-12-31T01:56:03.204Z,20.17
2022-12-31T01:59:34.898Z,21.25
2022-12-31T02:02:40.039Z,20.77
2022-12-31T02:05:56.909Z,12.82
2022-12-31T02:09:29.780Z,18.65
2022-12-31T02:15:57.164Z,14.80
2022-12-31T02:19:59.561Z,24.23
2022-12-31T02:23:32.923Z,24.17
2022-12-31T02:27:45.643Z,13.40
2022-12-31T02:30:55.552Z,16.55
2022-12-31T02:34:08.666Z,18.58
2022-12-31T02:37:34.054Z,23.77
2022-12-31T02:40:38.914Z,21.48
2022-12-31T02:44:02.516Z,23.52
2022-12-31T02:47:32.935Z,25.15
2022-12-31T02:50:58.218Z,20.27
2022-12-31T02:55:18.458Z,27.05
2022-12-31T02:59:00.775Z,21.02
2022-12-31T03:02:21.773Z,16.17
2022-12-31T03:05:51.468Z,19.20
2022-12-31T03:09:44.598Z,14.73
2022-12-31T03:13:29.899Z,17.75
2022-12-31T03:16:35.754Z,22.80
2022-12-31T03:20:00.754Z,27.20
2022-12-31T03:23:06.987Z,13.15
2022-12-31T03:26:13.607Z,20.85
2022-12-31T03:29:16.951Z,28.50
2022-12-31T03:32:44.604Z,18.30
2022-12-31T03:35:49.076Z,15.80
2022-12-31T03:38:56.035Z,24.10
2022-12-31T03:42:08.591Z,21.50
2022-12-31T03:46:01.748Z,18.75
2022-12-31T03:49:09.835Z,25.42
2022-12-31T03:52:17.513Z,16.70
2022-12-31T03:55:32.655Z,23.02
2022-12-31T03:58:47.602Z,24.17
2022-12-31T04:01:59.006Z,22.90
2022-12-31T04:05:25.627Z,23.83
2022-12-31T04:08:33.561Z,21.30
2022-12-31T04:11:41.929Z,30.60
2022-12-31T04:14:47.370Z,17.95
2022-12-31T04:17:51.706Z,20.02
2022-12-31T04:20:55.509Z,13.70
2022-12-31T04:24:01.903Z,26.33
2022-12-31T04:27:08.019Z,24.63
2022-12-31T04:30:16.947Z,21.25
2022-12-31T04:33:20.844Z,19.48
2022-12-31T04:36:44.730Z,17.83
2022-12-31T04:39:47.965Z,21.30
2022-12-31T04:42:51.573Z,18.60
2022-12-31T04:45:54.835Z,21.08
2022-12-31T04:48:59.498Z,17.42
2022-12-31T04:52:02.727Z,22.30
2022-12-31T04:55:06.943Z,20.08
2022-12-31T04:58:14.237Z,17.45
2022-12-31T05:01:20.228Z,20.20
2022-12-31T05:04:34.328Z,22.15
2022-12-31T05:07:58.847Z,13.98
2022-12-31T05:11:04.556Z,20.62
2022-12-31T05:14:28.690Z,16.20
2022-12-31T05:17:44.888Z,18.80
2022-12-31T05:21:22.156Z,14.10
2022-12-31T05:24:51.943Z,13.93
2022-12-31T05:27:58.964Z,16.20
2022-12-31T05:31:14.922Z,20.25
2022-12-31T05:34:45.624Z,19.35
2022-12-31T05:38:31.581Z,19.23
2022-12-31T05:41:36.276Z,16.15
2022-12-31T05:45:08.210Z,21.52
2022-12-31T05:48:30.065Z,16.27
2022-12-31T05:51:56.138Z,21.20
2022-12-31T05:55:00.180Z,23.27
2022-12-31T06:01:35.987Z,18.10
2022-12-31T06:04:42.764Z,16.33
2022-12-31T06:07:50.209Z,12.55
2022-12-31T06:11:14.361Z,14.48
2022-12-31T06:14:21.181Z,16.40
2022-12-31T06:17:27.873Z,19.37
2022-12-31T06:20:38.497Z,19.20
2022-12-31T06:24:22.120Z,15.60
2022-12-31T06:27:25.428Z,16.52
2022-12-31T06:30:28.613Z,20.15
2022-12-31T06:33:31.929Z,14.73
2022-12-31T06:36:35.626Z,17.35
2022-12-31T06:39:42.531Z,23.50
2022-12-31T06:42:46.475Z,16.87
2022-12-31T06:45:49.869Z,20.10
2022-12-31T06:48:55.631Z,22.35
2022-12-31T06:52:04.405Z,17.75
2022-12-31T06:58:30.590Z,19.90
2022-12-31T07:01:46.080Z,19.90
2022-12-31T07:05:30.716Z,23.67
2022-12-31T07:08:54.521Z,22.15
2022-12-31T07:12:44.914Z,22.37
2022-12-31T07:16:02.669Z,22.85
2022-12-31T07:19:32.214Z,22.75
2022-12-31T07:23:30.451Z,23.70
2022-12-31T07:27:54.624Z,16.73
2022-12-31T07:31:49.437Z,26.92
2022-12-31T07:35:00.366Z,21.15
2022-12-31T07:38:25.245Z,21.42
2022-12-31T07:42:01.309Z,26.83
2022-12-31T07:45:21.314Z,17.92
2022-12-31T07:48:30.410Z,26.62
2022-12-31T07:51:38.146Z,19.12
2022-12-31T07:54:53.856Z,22.25
2022-12-31T07:58:47.345Z,13.35
2022-12-31T08:02:03.689Z,35.13
2022-12-31T08:05:27.671Z,31.00
2022-12-31T08:09:11.827Z,27.92
2022-12-31T08:13:43.022Z,24.12
2022-12-31T08:39:02.592Z,25.62
2022-12-31T08:48:30.034Z,28.85
2022-12-31T08:52:09.205Z,25.75
2022-12-31T08:57:27.926Z,26.95
2022-12-31T09:36:38.002Z,30.42
2022-12-31T09:40:59.618Z,29.92
2022-12-31T09:50:11.605Z,29.50
2022-12-31T09:54:15.356Z,27.98
2022-12-31T09:58:46.944Z,37.17
2022-12-31T10:02:25.682Z,37.25
2022-12-31T10:06:03.729Z,32.70
2022-12-31T10:19:27.917Z,22.50
2022-12-31T10:22:51.554Z,26.23
2022-12-31T10:26:42.274Z,17.35
2022-12-31T10:29:59.737Z,23.73
2022-12-31T10:37:26.284Z,19.15
2022-12-31T10:41:05.888Z,22.50
2022-12-31T10:45:05.249Z,23.40
2022-12-31T10:49:39.846Z,21.92
2022-12-31T10:54:13.591Z,22.75
2022-12-31T10:58:50.646Z,21.45
2022-12-31T11:02:34.514Z,24.12
2022-12-31T11:06:13.701Z,25.60
2022-12-31T11:10:14.415Z,23.98
2022-12-31T11:14:11.355Z,27.27
2022-12-31T11:17:38.027Z,23.52
2022-12-31T11:21:51.890Z,22.70
2022-12-31T11:25:08.642Z,22.92
2022-12-31T11:28:34.409Z,26.48
2022-12-31T11:32:16.141Z,25.95
2022-12-31T11:35:45.650Z,30.92
2022-12-31T11:39:32.189Z,21.67
2022-12-31T11:43:15.171Z,25.65
2022-12-31T11:47:04.568Z,29.12
2022-12-31T11:50:13.476Z,24.63
2022-12-31T11:53:16.900Z,27.00
2022-12-31T11:56:34.201Z,23.75
2022-12-31T12:00:01.689Z,24.92
2022-12-31T12:03:18.935Z,20.08
2022-12-31T12:06:46.405Z,20.10
2022-12-31T12:09:51.754Z,20.92
2022-12-31T12:13:03.707Z,26.45
2022-12-31T12:16:09.422Z,25.98
2022-12-31T12:19:19.365Z,29.87
2022-12-31T12:22:36.827Z,22.27
2022-12-31T12:26:52.319Z,23.80
2022-12-31T12:30:24.556Z,25.67
2022-12-31T12:34:00.475Z,31.30
2022-12-31T12:37:34.724Z,28.35
2022-12-31T12:41:10.580Z,22.35
2022-12-31T12:44:19.713Z,24.12
2022-12-31T12:47:28.946Z,22.67
2022-12-31T12:50:42.425Z,23.27
2022-12-31T12:54:46.228Z,21.77
2022-12-31T13:04:23.797Z,24.73
2022-12-31T13:20:22.193Z,19.70
2022-12-31T13:25:03.588Z,20.35
2022-12-31T13:28:49.196Z,29.90
2022-12-31T13:32:40.210Z,33.60
2022-12-31T13:35:54.129Z,26.42
2022-12-31T13:39:02.358Z,22.60
2022-12-31T13:42:27.597Z,15.93
2022-12-31T13:45:38.889Z,20.27
2022-12-31T13:48:53.584Z,25.40
2022-12-31T13:52:27.410Z,23.50
2022-12-31T13:55:36.749Z,23.50
2022-12-31T13:58:57.955Z,22.55
2022-12-31T14:02:35.546Z,19.12
2022-12-31T14:05:52.728Z,17.27
2022-12-31T14:08:57.848Z,17.77
2022-12-31T14:12:31.133Z,20.27
2022-12-31T14:15:52.757Z,22.10
2022-12-31T14:19:07.398Z,17.83
2022-12-31T14:22:18.949Z,15.50
2022-12-31T14:26:23.852Z,18.73
2022-12-31T14:29:50.353Z,18.15
2022-12-31T14:33:43.671Z,18.12
2022-12-31T14:37:17.215Z,18.48
2022-12-31T14:41:23.962Z,22.42
2022-12-31T14:44:54.326Z,19.15
2022-12-31T14:48:09.595Z,22.25
2022-12-31T14:51:15.064Z,19.62
2022-12-31T14:55:24.487Z,23.75
2022-12-31T14:58:54.071Z,26.27
2022-12-31T15:02:33.769Z,28.65
2022-12-31T15:05:53.251Z,27.37
2022-12-31T15:09:17.911Z,23.05
2022-12-31T15:12:29.028Z,25.20
2022-12-31T15:15:43.052Z,24.60
2022-12-31T15:19:11.999Z,23.62
2022-12-31T15:22:37.652Z,23.48
2022-12-31T15:25:48.385Z,23.17
2022-12-31T15:29:51.294Z,22.35
2022-12-31T15:33:27.211Z,25.30
2022-12-31T15:36:34.611Z,22.45
2022-12-31T15:39:44.566Z,28.23
2022-12-31T15:42:58.341Z,25.55
2022-12-31T15:46:06.079Z,25.48
2022-12-31T15:49:23.854Z,33.50
2022-12-31T15:53:02.464Z,33.65
2022-12-31T15:56:49.011Z,29.12
2022-12-31T16:00:24.983Z,30.90
2022-12-31T16:03:36.734Z,36.45
2022-12-31T16:06:46.074Z,29.48
2022-12-31T16:10:50.372Z,31.10
2022-12-31T16:14:00.732Z,26.73
2022-12-31T16:17:38.633Z,24.20
2022-12-31T16:20:50.772Z,31.73
2022-12-31T16:24:35.219Z,22.65
2022-12-31T16:28:01.746Z,28.00
2022-12-31T16:31:29.199Z,21.73
2022-12-31T16:34:38.324Z,23.17
2022-12-31T16:37:42.751Z,26.02
2022-12-31T16:41:03.881Z,25.70
2022-12-31T16:44:24.873Z,24.02
2022-12-31T16:47:40.662Z,28.20
2022-12-31T16:50:49.687Z,27.02
2022-12-31T16:53:53.109Z,25.55
2022-12-31T16:56:59.003Z,27.25
2022-12-31T17:00:07.289Z,31.58
2022-12-31T17:06:21.263Z,26.48
2022-12-31T17:09:37.284Z,38.30
2022-12-31T17:13:25.546Z,36.28
2022-12-31T17:16:09.015Z,32.45
2022-12-31T17:19:42.042Z,30.12
2022-12-31T17:22:46.020Z,34.45
2022-12-31T17:25:49.427Z,30.37
2022-12-31T17:28:54.445Z,30.20
2022-12-31T17:32:07.670Z,28.07
2022-12-31T17:35:43.856Z,32.35
2022-12-31T17:38:47.841Z,32.63
2022-12-31T17:41:58.508Z,36.25
2022-12-31T17:45:16.323Z,28.50
2022-12-31T17:48:23.401Z,29.85
2022-12-31T17:51:29.568Z,34.83
2022-12-31T17:54:32.920Z,34.67
2022-12-31T17:57:36.436Z,39.25
2022-12-31T18:00:39.886Z,40.70
2022-12-31T18:03:44.457Z,36.67
2022-12-31T18:06:47.175Z,51.85
2022-12-31T18:09:53.793Z,51.65
2022-12-31T18:12:59.228Z,55.38
2022-12-31T18:16:02.441Z,42.00
2022-12-31T18:19:23.531Z,44.60
2022-12-31T18:22:38.063Z,39.88
2022-12-31T18:28:43.794Z,42.42
2022-12-31T18:31:49.489Z,52.30
2022-12-31T18:34:53.237Z,46.80
2022-12-31T18:38:00.296Z,46.53
2022-12-31T18:41:19.779Z,40.38
2022-12-31T18:44:27.531Z,45.55
2022-12-31T18:47:37.299Z,47.38
2022-12-31T18:50:44.402Z,54.28
2022-12-31T18:53:48.515Z,58.22
2022-12-31T18:56:57.072Z,51.43
2022-12-31T19:03:06.367Z,50.60
2022-12-31T19:06:10.333Z,59.38
2022-12-31T19:09:43.504Z,47.25
2022-12-31T19:12:37.696Z,54.10
2022-12-31T19:15:50.901Z,51.63
2022-12-31T19:18:54.846Z,45.80
2022-12-31T19:21:58.035Z,43.65
2022-12-31T19:25:02.565Z,51.97
2022-12-31T19:28:13.368Z,72.60
2022-12-31T19:31:18.993Z,54.58
2022-12-31T19:34:26.007Z,54.60
2022-12-31T19:37:30.560Z,56.47
2022-12-31T19:40:38.054Z,53.93
2022-12-31T19:43:43.793Z,50.47
2022-12-31T19:46:47.191Z,60.90
2022-12-31T19:49:50.974Z,52.40
2022-12-31T19:52:57.510Z,53.95
2022-12-31T19:56:03.023Z,54.40
2022-12-31T19:59:07.847Z,55.42
2022-12-31T20:02:31.200Z,53.92
2022-12-31T20:05:38.801Z,47.33
2022-12-31T20:08:44.714Z,54.92
2022-12-31T20:12:07.891Z,56.10
2022-12-31T20:15:11.601Z,54.28
2022-12-31T20:18:20.971Z,51.80
2022-12-31T20:21:28.942Z,49.47
2022-12-31T20:24:34.285Z,47.83
2022-12-31T20:27:39.743Z,51.10
2022-12-31T20:30:45.989Z,60.25
2022-12-31T20:33:49.999Z,53.85
2022-12-31T20:36:56.227Z,49.85
2022-12-31T20:40:00.851Z,41.83
2022-12-31T20:43:06.888Z,44.47
2022-12-31T20:50:10.178Z,55.25
2022-12-31T20:53:11.593Z,54.67
2022-12-31T20:56:16.535Z,64.30
2022-12-31T20:59:26.319Z,56.75
2022-12-31T21:02:42.162Z,62.28
2022-12-31T21:05:53.473Z,59.25
2022-12-31T21:08:59.495Z,55.55
2022-12-31T21:12:28.799Z,67.75
2022-12-31T21:15:32.267Z,54.35
2022-12-31T21:18:35.341Z,57.53
2022-12-31T21:21:50.990Z,53.05
2022-12-31T21:24:54.127Z,55.17
2022-12-31T21:27:58.004Z,56.83
2022-12-31T21:31:06.395Z,53.45
2022-12-31T21:34:15.857Z,59.63
2022-12-31T21:37:19.723Z,55.75
2022-12-31T21:40:27.269Z,48.57
2022-12-31T21:43:35.950Z,54.28
2022-12-31T21:46:54.614Z,50.40
2022-12-31T21:50:16.063Z,53.73
2022-12-31T21:53:36.621Z,66.32
2022-12-31T21:56:44.776Z,46.37
2022-12-31T22:00:40.435Z,53.50
2022-12-31T22:03:43.414Z,40.75
2022-12-31T22:06:56.879Z,42.20
2022-12-31T22:10:03.391Z,43.65
2022-12-31T22:13:10.637Z,46.67
2022-12-31T22:16:20.431Z,44.20
2022-12-31T22:19:23.379Z,49.15
2022-12-31T22:22:26.823Z,45.35
2022-12-31T22:25:39.626Z,53.38
2022-12-31T22:28:44.361Z,52.38
2022-12-31T22:31:49.969Z,43.78
2022-12-31T22:34:53.088Z,43.47
2022-12-31T22:38:03.279Z,42.22
2022-12-31T22:41:21.445Z,34.88
2022-12-31T22:44:30.799Z,47.40
2022-12-31T22:47:33.824Z,55.25
2022-12-31T22:50:38.269Z,46.33
2022-12-31T22:53:43.684Z,47.83
2022-12-31T22:56:48.927Z,55.83
2022-12-31T23:00:02.554Z,55.72
2022-12-31T23:03:12.409Z,57.33
2022-12-31T23:06:43.953Z,52.60
2022-12-31T23:10:06.249Z,53.60
2022-12-31T23:13:28.726Z,42.85
2022-12-31T23:16:50.318Z,51.53
2022-12-31T23:20:15.733Z,47.65
2022-12-31T23:23:21.528Z,44.10
2022-12-31T23:26:24.598Z,46.72
2022-12-31T23:29:30.170Z,57.72
2022-12-31T23:32:33.823Z,65.53
2022-12-31T23:35:38.069Z,73.10
2022-12-31T23:38:53.936Z,69.82
2022-12-31T23:42:00.933Z,61.63
2022-12-31T23:45:04.530Z,76.20
2022-12-31T23:48:07.885Z,74.87
2022-12-31T23:51:11.506Z,71.68
2022-12-31T23:54:18.401Z,77.32
2022-12-31T23:57:22.980Z,77.37
